createdAt,value
2019-01-20T00:03:59.034Z,99.90
2019-01-20T00:06:25.897Z,99.90
2019-01-20T00:09:12.589Z,99.90
2019-01-20T00:11:59.236Z,99.90
2019-01-20T00:14:45.718Z,99.90
2019-01-20T00:17:12.741Z,99.90
2019-01-20T00:19:59.385Z,99.90
2019-01-20T00:22:39.498Z,99.90
2019-01-20T00:25:19.510Z,99.90
2019-01-20T00:27:59.498Z,99.90
2019-01-20T00:30:39.342Z,99.90
2019-01-20T00:33:19.289Z,99.90
2019-01-20T00:35:59.326Z,99.90
2019-01-20T00:38:39.342Z,99.90
2019-01-20T00:41:23.981Z,99.90
2019-01-20T00:43:48.429Z,99.90
2019-01-20T00:46:35.033Z,99.90
2019-01-20T00:49:21.842Z,99.90
2019-01-20T00:51:49.074Z,99.90
2019-01-20T00:54:35.590Z,99.90
2019-01-20T00:57:22.065Z,99.90
2019-01-20T01:03:19.228Z,99.90
2019-01-20T01:06:06.009Z,99.90
2019-01-20T01:08:52.595Z,99.90
2019-01-20T01:11:39.094Z,99.90
2019-01-20T01:14:25.620Z,99.90
2019-01-20T01:17:12.508Z,99.90
2019-01-20T01:19:59.036Z,99.90
2019-01-20T01:22:38.585Z,99.90
2019-01-20T01:25:19.081Z,99.90
2019-01-20T01:27:58.986Z,99.90
2019-01-20T01:30:25.975Z,99.90
2019-01-20T01:33:12.517Z,99.90
2019-01-20T01:38:46.343Z,99.90
2019-01-20T01:41:39.004Z,99.90
2019-01-20T01:44:01.937Z,99.90
2019-01-20T01:46:48.735Z,99.90
2019-01-20T01:49:35.292Z,99.90
2019-01-20T01:52:22.030Z,99.90
2019-01-20T01:55:08.999Z,99.90
2019-01-20T01:57:55.522Z,99.90
2019-01-20T02:00:23.105Z,99.90
2019-01-20T02:03:09.645Z,99.90
2019-01-20T02:05:56.413Z,99.90
2019-01-20T02:08:23.523Z,99.90
2019-01-20T02:10:50.441Z,99.90
2019-01-20T02:13:37.137Z,99.90
2019-01-20T02:16:23.742Z,99.90
2019-01-20T02:18:50.658Z,99.90
2019-01-20T02:21:37.417Z,99.90
2019-01-20T02:24:17.362Z,99.90
2019-01-20T02:26:57.282Z,99.90
2019-01-20T02:29:37.277Z,99.90
2019-01-20T02:32:04.709Z,99.90
2019-01-20T02:34:51.628Z,99.90
2019-01-20T02:37:38.436Z,99.90
2019-01-20T02:40:06.139Z,99.90
2019-01-20T02:42:33.371Z,99.90
2019-01-20T02:45:19.952Z,99.90
2019-01-20T02:48:06.442Z,99.90
2019-01-20T02:50:52.899Z,99.90
2019-01-20T04:06:18.547Z,99.90
2019-01-20T04:08:58.638Z,99.90
2019-01-20T04:11:38.802Z,99.90
2019-01-20T04:14:18.901Z,99.90
2019-01-20T04:16:45.902Z,99.90
2019-01-20T04:19:12.935Z,99.90
2019-01-20T04:21:52.710Z,99.90
2019-01-20T04:24:32.914Z,99.90
2019-01-20T04:27:12.801Z,99.90
2019-01-20T04:32:53.869Z,99.90
2019-01-20T04:35:34.097Z,99.90
2019-01-20T04:38:14.144Z,99.90
2019-01-20T04:40:54.289Z,99.90
2019-01-20T04:43:33.509Z,99.90
2019-01-20T04:46:13.375Z,99.90
2019-01-20T04:48:53.682Z,99.90
2019-01-20T04:51:33.377Z,99.90
2019-01-20T04:54:13.733Z,99.90
2019-01-20T04:56:53.575Z,99.90
2019-01-20T04:59:20.359Z,99.90
2019-01-20T05:02:06.770Z,99.90
2019-01-20T05:04:53.454Z,99.90
2019-01-20T05:07:39.944Z,99.90
2019-01-20T05:10:26.485Z,99.90
2019-01-20T05:13:12.908Z,99.90
2019-01-20T05:15:59.701Z,99.90
2019-01-20T05:18:46.122Z,99.90
2019-01-20T05:24:12.807Z,99.90
2019-01-20T05:26:51.987Z,99.90
2019-01-20T05:29:31.145Z,99.90
2019-01-20T05:31:57.944Z,99.90
2019-01-20T05:34:44.342Z,99.90
2019-01-20T05:37:31.114Z,99.90
2019-01-20T05:40:17.809Z,99.90
2019-01-20T05:43:04.329Z,99.90
2019-01-20T05:45:50.849Z,99.90
2019-01-20T05:48:37.377Z,99.90
2019-01-20T05:51:23.807Z,99.90
2019-01-20T05:54:10.330Z,99.90
2019-01-20T05:56:56.857Z,99.90
2019-01-20T05:59:23.745Z,99.90
2019-01-20T06:02:10.156Z,99.90
2019-01-20T06:04:57.020Z,99.90
2019-01-20T06:07:43.602Z,99.90
2019-01-20T06:10:30.249Z,99.90
2019-01-20T06:13:16.817Z,99.90
2019-01-20T06:15:44.906Z,99.90
2019-01-20T06:18:12.588Z,99.90
2019-01-20T06:20:59.000Z,99.90
2019-01-20T06:23:38.788Z,99.90
2019-01-20T06:26:18.995Z,99.90
2019-01-20T06:28:59.070Z,99.90
2019-01-20T06:31:38.930Z,99.90
2019-01-20T06:34:19.066Z,99.90
2019-01-20T06:36:46.328Z,99.90
2019-01-20T06:39:13.261Z,99.90
2019-01-20T06:41:59.807Z,99.90
2019-01-20T06:44:46.327Z,99.90
2019-01-20T06:47:33.009Z,99.90
2019-01-20T06:50:20.084Z,99.90
2019-01-20T06:53:06.996Z,99.90
2019-01-20T06:55:53.602Z,99.90
2019-01-20T06:58:40.137Z,99.90
2019-01-20T07:01:07.156Z,99.90
2019-01-20T07:03:53.665Z,99.90
2019-01-20T07:06:40.078Z,99.90
2019-01-20T07:09:07.336Z,99.90
2019-01-20T07:11:53.807Z,99.90
2019-01-20T07:14:40.393Z,99.90
2019-01-20T07:19:53.693Z,99.90
2019-01-20T07:22:20.482Z,99.90
2019-01-20T07:24:47.267Z,99.90
2019-01-20T07:27:14.241Z,99.90
2019-01-20T07:29:41.008Z,99.90
2019-01-20T07:32:07.886Z,99.90
2019-01-20T07:34:54.425Z,99.90
2019-01-20T07:37:21.293Z,99.90
2019-01-20T07:39:48.153Z,99.90
2019-01-20T07:42:15.109Z,99.90
2019-01-20T07:44:42.019Z,99.90
2019-01-20T07:47:09.357Z,99.90
2019-01-20T07:49:36.364Z,99.90
2019-01-20T07:52:22.873Z,99.90
2019-01-20T07:55:09.385Z,99.90
2019-01-20T07:57:56.021Z,99.90
2019-01-20T08:00:42.646Z,99.90
2019-01-20T08:03:29.172Z,99.90
2019-01-20T08:06:15.685Z,99.90
2019-01-20T08:09:23.794Z,99.90
2019-01-20T08:12:10.393Z,99.90
2019-01-20T08:14:57.081Z,99.90
2019-01-20T08:17:43.605Z,99.90
2019-01-20T08:20:30.141Z,99.90
2019-01-20T08:23:09.843Z,99.90
2019-01-20T08:25:37.262Z,99.90
2019-01-20T08:28:24.127Z,99.90
2019-01-20T08:31:10.665Z,99.90
2019-01-20T08:33:57.077Z,99.90
2019-01-20T08:36:43.509Z,99.90
2019-01-20T08:39:10.829Z,99.90
2019-01-20T08:41:57.455Z,99.90
2019-01-20T08:47:35.269Z,99.90
2019-01-20T08:50:44.487Z,99.90
2019-01-20T08:53:30.966Z,99.90
2019-01-20T08:55:57.965Z,99.90
2019-01-20T08:58:25.295Z,99.90
2019-01-20T09:00:52.084Z,99.90
2019-01-20T09:03:19.052Z,99.90
2019-01-20T09:06:05.637Z,99.90
2019-01-20T09:08:52.213Z,99.90
2019-01-20T09:17:11.886Z,99.90
2019-01-20T09:19:58.317Z,99.90
2019-01-20T09:31:27.213Z,99.90
2019-01-20T09:37:00.250Z,99.90
2019-01-20T09:39:46.917Z,99.90
2019-01-20T09:45:41.509Z,99.90
2019-01-20T09:48:28.278Z,99.90
2019-01-20T09:51:14.909Z,99.90
2019-01-20T09:54:01.477Z,99.90
2019-01-20T09:56:47.886Z,99.90
2019-01-20T09:59:34.313Z,99.90
2019-01-20T10:02:20.888Z,99.90
2019-01-20T10:05:07.910Z,99.90
2019-01-20T10:07:54.388Z,99.90
2019-01-20T10:10:41.029Z,99.90
2019-01-20T10:13:27.553Z,99.90
2019-01-20T10:16:14.190Z,99.90
2019-01-20T10:21:47.886Z,99.60
2019-01-20T10:24:28.082Z,95.10
2019-01-20T10:27:08.448Z,99.90
2019-01-20T10:29:48.243Z,98.00
2019-01-20T10:32:28.172Z,94.50
2019-01-20T10:35:08.849Z,99.40
2019-01-20T10:37:48.649Z,95.80
2019-01-20T10:40:29.374Z,96.10
2019-01-20T10:43:09.646Z,99.90
2019-01-20T10:45:39.730Z,99.90
2019-01-20T10:48:26.289Z,99.90
2019-01-20T11:02:19.520Z,99.90
2019-01-20T11:10:40.275Z,99.90
2019-01-20T11:16:15.646Z,99.90
2019-01-20T11:19:02.320Z,99.90
2019-01-20T11:21:48.825Z,99.90
2019-01-20T11:24:29.114Z,99.90
2019-01-20T11:27:09.040Z,99.90
2019-01-20T11:29:49.333Z,99.90
2019-01-20T11:32:29.255Z,99.90
2019-01-20T11:37:50.725Z,99.90
2019-01-20T11:40:30.784Z,99.90
2019-01-20T11:43:10.638Z,99.90
2019-01-20T11:45:50.546Z,99.90
2019-01-20T11:48:30.635Z,99.90
2019-01-20T11:51:11.013Z,99.90
2019-01-20T11:53:37.989Z,99.90
2019-01-20T11:56:05.151Z,99.90
2019-01-20T11:58:32.069Z,99.90
2019-01-20T12:00:59.178Z,99.90
2019-01-20T12:03:45.748Z,99.90
2019-01-20T12:06:39.395Z,99.90
2019-01-20T12:12:36.736Z,99.90
2019-01-20T12:15:23.588Z,99.90
2019-01-20T12:18:10.099Z,99.90
2019-01-20T12:20:56.610Z,99.90
2019-01-20T12:23:36.549Z,99.90
2019-01-20T12:26:16.654Z,99.90
2019-01-20T12:28:56.280Z,99.90
2019-01-20T12:31:36.256Z,99.90
2019-01-20T12:34:16.516Z,99.90
2019-01-20T12:36:43.602Z,99.90
2019-01-20T12:39:30.278Z,99.90
2019-01-20T12:42:16.824Z,99.90
2019-01-20T12:45:03.758Z,99.90
2019-01-20T12:47:30.797Z,99.90
2019-01-20T12:50:17.433Z,99.90
2019-01-20T12:53:04.213Z,99.90
2019-01-20T12:55:51.015Z,99.90
2019-01-20T12:58:18.021Z,99.90
2019-01-20T13:01:04.749Z,99.90
2019-01-20T13:03:51.526Z,99.90
2019-01-20T13:09:28.133Z,99.90
2019-01-20T13:12:14.541Z,99.90
2019-01-20T13:15:01.063Z,99.90
2019-01-20T13:17:47.599Z,99.90
2019-01-20T13:20:34.148Z,99.90
2019-01-20T13:23:13.703Z,99.90
2019-01-20T13:25:53.772Z,99.90
2019-01-20T13:28:33.626Z,99.90
2019-01-20T13:31:13.789Z,99.90
2019-01-20T13:33:54.113Z,99.90
2019-01-20T13:36:34.527Z,99.90
2019-01-20T13:42:04.390Z,99.90
2019-01-20T13:44:53.946Z,99.90
2019-01-20T13:50:10.747Z,99.90
2019-01-20T13:52:57.257Z,99.90
2019-01-20T13:58:10.918Z,99.90
2019-01-20T14:00:57.463Z,99.90
2019-01-20T14:03:44.005Z,96.80
2019-01-20T14:06:30.553Z,95.40
2019-01-20T14:09:17.117Z,89.60
2019-01-20T14:12:03.743Z,93.30
2019-01-20T14:14:54.069Z,95.10
2019-01-20T14:17:38.842Z,91.30
2019-01-20T14:20:25.381Z,94.30
2019-01-20T14:23:04.606Z,96.80
2019-01-20T14:25:31.993Z,94.50
2019-01-20T14:28:18.829Z,95.10
2019-01-20T14:31:05.361Z,94.20
2019-01-20T14:33:51.874Z,99.90
2019-01-20T14:36:38.781Z,99.90
2019-01-20T14:39:25.203Z,99.90
2019-01-20T14:42:12.423Z,99.90
2019-01-20T14:44:41.169Z,99.90
2019-01-20T14:47:27.895Z,99.90
2019-01-20T14:50:15.971Z,99.90
2019-01-20T14:53:02.722Z,99.90
2019-01-20T14:58:36.029Z,99.90
2019-01-20T15:04:09.539Z,99.90
2019-01-20T15:06:56.114Z,99.90
2019-01-20T15:09:42.600Z,99.90
2019-01-20T15:12:29.300Z,99.90
2019-01-20T15:18:44.902Z,99.90
2019-01-20T15:21:12.103Z,99.90
2019-01-20T15:23:39.104Z,99.90
2019-01-20T15:26:25.735Z,99.90
2019-01-20T15:29:12.249Z,99.90
2019-01-20T15:31:58.770Z,99.90
2019-01-20T15:34:25.550Z,99.90
2019-01-20T15:37:11.990Z,99.90
2019-01-20T15:39:38.753Z,99.90
2019-01-20T15:42:25.345Z,99.90
2019-01-20T15:45:24.166Z,99.90
2019-01-20T15:48:00.875Z,99.90
2019-01-20T15:53:34.138Z,99.90
2019-01-20T15:56:20.746Z,99.90
2019-01-20T15:58:47.761Z,99.90
2019-01-20T16:01:14.929Z,99.90
2019-01-20T16:04:01.481Z,99.90
2019-01-20T16:06:28.500Z,99.90
2019-01-20T16:09:15.027Z,99.90
2019-01-20T16:11:43.169Z,99.90
2019-01-20T16:14:29.660Z,99.90
2019-01-20T16:20:05.834Z,99.90
2019-01-20T16:22:52.387Z,99.90
2019-01-20T16:28:25.943Z,99.90
2019-01-20T17:01:26.929Z,99.90
2019-01-20T17:04:13.465Z,99.90
2019-01-20T17:07:00.249Z,99.90
2019-01-20T17:09:49.479Z,99.90
2019-01-20T17:12:36.120Z,99.90
2019-01-20T17:15:23.941Z,99.90
2019-01-20T17:18:11.434Z,99.90
2019-01-20T17:20:58.042Z,99.90
2019-01-20T17:23:38.187Z,99.90
2019-01-20T17:26:17.642Z,99.90
2019-01-20T17:28:57.429Z,99.90
2019-01-20T17:31:37.714Z,99.90
2019-01-20T17:34:17.847Z,99.90
2019-01-20T17:36:44.781Z,99.90
2019-01-20T17:39:31.483Z,99.90
2019-01-20T17:42:18.056Z,99.90
2019-01-20T17:44:45.215Z,99.90
2019-01-20T17:47:31.777Z,99.90
2019-01-20T17:50:19.467Z,99.90
2019-01-20T17:53:06.959Z,99.90
2019-01-20T17:55:53.542Z,99.90
2019-01-20T17:58:40.261Z,99.90
2019-01-20T18:01:07.755Z,99.90
2019-01-20T18:03:34.920Z,99.90
2019-01-20T18:06:01.964Z,99.90
2019-01-20T18:08:48.961Z,99.90
2019-01-20T18:11:35.682Z,99.90
2019-01-20T18:14:22.618Z,99.90
2019-01-20T18:17:09.724Z,99.90
2019-01-20T18:22:42.809Z,99.90
2019-01-20T18:25:22.597Z,99.90
2019-01-20T18:28:01.864Z,99.90
2019-01-20T18:30:42.532Z,99.90
2019-01-20T18:33:22.739Z,99.90
2019-01-20T18:35:50.053Z,99.90
2019-01-20T18:38:17.530Z,99.90
2019-01-20T18:52:13.141Z,99.90
2019-01-20T18:54:59.937Z,99.90
2019-01-20T18:57:46.506Z,99.90
2019-01-20T19:00:28.342Z,99.90
2019-01-20T19:03:15.121Z,99.90
2019-01-20T19:05:42.608Z,99.90
2019-01-20T19:08:29.631Z,99.90
2019-01-20T19:10:56.776Z,99.90
2019-01-20T19:13:43.363Z,99.90
2019-01-20T19:16:30.287Z,99.90
2019-01-20T19:18:58.112Z,99.90
2019-01-20T19:21:44.982Z,99.90
2019-01-20T19:24:12.034Z,99.90
2019-01-20T19:26:58.994Z,99.90
2019-01-20T19:29:45.881Z,99.90
2019-01-20T19:32:12.889Z,99.90
2019-01-20T19:34:59.557Z,99.90
2019-01-20T19:37:46.480Z,99.90
2019-01-20T19:40:13.633Z,99.90
2019-01-20T19:43:00.147Z,99.90
2019-01-20T19:45:46.691Z,99.90
2019-01-20T19:48:33.399Z,99.90
2019-01-20T19:51:20.199Z,99.90
2019-01-20T19:53:47.125Z,99.90
2019-01-20T19:56:14.729Z,99.90
2019-01-20T19:59:01.487Z,99.90
2019-01-20T20:01:48.178Z,99.90
2019-01-20T20:04:15.194Z,99.90
2019-01-20T20:07:01.775Z,99.90
2019-01-20T20:09:50.246Z,99.90
2019-01-20T20:12:17.473Z,99.90
2019-01-20T20:14:44.806Z,99.90
2019-01-20T20:17:31.596Z,99.90
2019-01-20T20:20:19.138Z,99.90
2019-01-20T20:23:05.994Z,99.90
2019-01-20T20:25:46.266Z,99.90
2019-01-20T20:28:27.824Z,99.90
2019-01-20T20:30:55.110Z,99.90
2019-01-20T20:33:22.127Z,99.90
2019-01-20T20:36:08.660Z,99.90
2019-01-20T20:38:55.455Z,99.90
2019-01-20T20:49:44.433Z,99.90
2019-01-20T20:55:17.531Z,99.90
2019-01-20T20:57:44.611Z,99.90
2019-01-20T21:00:50.676Z,99.90
2019-01-20T21:03:38.674Z,99.90
2019-01-20T21:06:25.109Z,99.90
2019-01-20T21:08:52.084Z,99.90
2019-01-20T21:11:19.067Z,99.90
2019-01-20T21:14:05.717Z,99.90
2019-01-20T21:16:37.864Z,99.90
2019-01-20T21:19:02.078Z,99.90
2019-01-20T21:21:29.190Z,99.90
2019-01-20T21:27:22.014Z,99.90
2019-01-20T21:30:02.057Z,99.90
2019-01-20T21:32:29.072Z,99.90
2019-01-20T21:35:17.368Z,99.90
2019-01-20T21:37:44.404Z,99.90
2019-01-20T21:46:25.284Z,99.90
2019-01-20T21:48:52.309Z,99.90
2019-01-20T21:51:38.951Z,99.90
2019-01-20T21:54:25.485Z,99.90
2019-01-20T21:57:12.022Z,99.90
2019-01-20T21:59:58.542Z,99.90
2019-01-20T22:02:45.097Z,99.90
2019-01-20T22:08:18.453Z,99.90
2019-01-20T22:16:38.289Z,99.90
2019-01-20T22:27:50.849Z,99.90
2019-01-20T22:30:37.400Z,99.90
2019-01-20T22:33:23.923Z,99.90
2019-01-20T22:36:10.449Z,99.90
2019-01-20T22:38:56.909Z,99.90
2019-01-20T22:41:43.688Z,99.90
2019-01-20T22:44:30.311Z,99.90
2019-01-20T22:47:00.326Z,99.90
2019-01-20T22:49:45.882Z,99.90
2019-01-20T22:52:32.721Z,99.90
2019-01-20T22:55:19.442Z,99.90
2019-01-20T22:58:05.965Z,99.90
2019-01-20T23:03:40.500Z,99.90
2019-01-20T23:06:27.272Z,99.90
2019-01-20T23:09:14.121Z,99.90
2019-01-20T23:11:41.623Z,99.90
2019-01-20T23:14:28.148Z,99.90
2019-01-20T23:20:01.458Z,99.90
2019-01-20T23:22:47.958Z,99.90
2019-01-20T23:25:27.456Z,99.90
2019-01-20T23:28:07.668Z,99.90
2019-01-20T23:30:47.742Z,99.90
2019-01-20T23:33:28.122Z,99.90
2019-01-20T23:36:08.021Z,99.90
2019-01-20T23:38:48.106Z,99.90
2019-01-20T23:41:28.053Z,99.90
2019-01-20T23:47:15.069Z,99.90
2019-01-20T23:49:50.190Z,99.90
2019-01-20T23:52:30.648Z,99.90
2019-01-20T23:55:10.156Z,99.90
2019-01-20T23:57:37.026Z,99.90
